sensor_id;sensor_type;location;lat;lon;timestamp;P1;durP1;ratioP1;P2;durP2;ratioP2
24517;SDS011;12678;51.336;12.406;2023-03-01T00:01:22;19.95;;;7.43;;
24517;SDS011;12678;51.336;12.406;2023-03-01T00:03:50;19.75;;;8.02;;
24517;SDS011;12678;51.336;12.406;2023-03-01T00:06:17;13.63;;;6.95;;
24517;SDS011;12678;51.336;12.406;2023-03-01T00:08:43;17.25;;;7.78;;
24517;SDS011;12678;51.336;12.406;2023-03-01T00:11:15;15.65;;;7.28;;
24517;SDS011;12678;51.336;12.406;2023-03-01T00:13:46;14.85;;;6.70;;
24517;SDS011;12678;51.336;12.406;2023-03-01T00:16:15;18.73;;;7.57;;
24517;SDS011;12678;51.336;12.406;2023-03-01T00:18:43;22.55;;;8.10;;
24517;SDS011;12678;51.336;12.406;2023-03-01T00:21:09;17.13;;;7.40;;
24517;SDS011;12678;51.336;12.406;2023-03-01T00:23:35;16.35;;;7.63;;
24517;SDS011;12678;51.336;12.406;2023-03-01T00:26:01;17.65;;;7.25;;
24517;SDS011;12678;51.336;12.406;2023-03-01T00:28:26;17.83;;;8.02;;
24517;SDS011;12678;51.336;12.406;2023-03-01T00:30:52;18.10;;;7.75;;
24517;SDS011;12678;51.336;12.406;2023-03-01T00:33:18;18.85;;;8.52;;
24517;SDS011;12678;51.336;12.406;2023-03-01T00:35:44;20.67;;;6.68;;
24517;SDS011;12678;51.336;12.406;2023-03-01T00:38:10;22.88;;;8.95;;
24517;SDS011;12678;51.336;12.406;2023-03-01T00:40:36;16.10;;;6.70;;
24517;SDS011;12678;51.336;12.406;2023-03-01T00:43:02;15.13;;;7.03;;
24517;SDS011;12678;51.336;12.406;2023-03-01T00:45:29;15.98;;;7.15;;
24517;SDS011;12678;51.336;12.406;2023-03-01T00:47:56;18.23;;;7.30;;
24517;SDS011;12678;51.336;12.406;2023-03-01T00:50:23;18.20;;;6.97;;
24517;SDS011;12678;51.336;12.406;2023-03-01T00:52:51;16.55;;;7.07;;
24517;SDS011;12678;51.336;12.406;2023-03-01T00:55:18;20.02;;;7.32;;
24517;SDS011;12678;51.336;12.406;2023-03-01T00:57:44;12.38;;;6.47;;
24517;SDS011;12678;51.336;12.406;2023-03-01T01:00:10;22.38;;;7.75;;
24517;SDS011;12678;51.336;12.406;2023-03-01T01:02:36;16.10;;;7.43;;
24517;SDS011;12678;51.336;12.406;2023-03-01T01:05:02;17.20;;;7.40;;
24517;SDS011;12678;51.336;12.406;2023-03-01T01:07:28;15.23;;;6.97;;
24517;SDS011;12678;51.336;12.406;2023-03-01T01:09:54;15.25;;;7.50;;
24517;SDS011;12678;51.336;12.406;2023-03-01T01:12:20;18.65;;;7.20;;
24517;SDS011;12678;51.336;12.406;2023-03-01T01:14:45;22.27;;;7.00;;
24517;SDS011;12678;51.336;12.406;2023-03-01T01:17:11;13.82;;;6.72;;
24517;SDS011;12678;51.336;12.406;2023-03-01T01:19:37;17.38;;;6.80;;
24517;SDS011;12678;51.336;12.406;2023-03-01T01:22:03;12.45;;;6.25;;
24517;SDS011;12678;51.336;12.406;2023-03-01T01:24:29;21.15;;;7.63;;
24517;SDS011;12678;51.336;12.406;2023-03-01T01:26:55;21.95;;;6.70;;
24517;SDS011;12678;51.336;12.406;2023-03-01T01:29:21;14.77;;;7.03;;
24517;SDS011;12678;51.336;12.406;2023-03-01T01:31:46;17.85;;;6.90;;
24517;SDS011;12678;51.336;12.406;2023-03-01T01:34:13;16.02;;;6.85;;
24517;SDS011;12678;51.336;12.406;2023-03-01T01:36:44;18.63;;;8.63;;
24517;SDS011;12678;51.336;12.406;2023-03-01T01:39:13;16.00;;;6.90;;
24517;SDS011;12678;51.336;12.406;2023-03-01T01:41:40;18.42;;;7.60;;
24517;SDS011;12678;51.336;12.406;2023-03-01T01:44:11;13.23;;;6.47;;
24517;SDS011;12678;51.336;12.406;2023-03-01T01:46:46;15.63;;;6.95;;
24517;SDS011;12678;51.336;12.406;2023-03-01T01:51:42;21.23;;;7.93;;
24517;SDS011;12678;51.336;12.406;2023-03-01T01:54:18;18.60;;;6.57;;
24517;SDS011;12678;51.336;12.406;2023-03-01T01:56:50;16.98;;;6.20;;
24517;SDS011;12678;51.336;12.406;2023-03-01T01:59:23;14.82;;;6.43;;
24517;SDS011;12678;51.336;12.406;2023-03-01T02:01:53;15.15;;;6.68;;
24517;SDS011;12678;51.336;12.406;2023-03-01T02:04:20;15.73;;;7.97;;
24517;SDS011;12678;51.336;12.406;2023-03-01T02:06:51;14.60;;;7.10;;
24517;SDS011;12678;51.336;12.406;2023-03-01T02:09:45;14.43;;;6.75;;
24517;SDS011;12678;51.336;12.406;2023-03-01T02:12:14;18.52;;;6.45;;
24517;SDS011;12678;51.336;12.406;2023-03-01T02:14:42;14.80;;;7.18;;
24517;SDS011;12678;51.336;12.406;2023-03-01T02:17:09;14.10;;;6.15;;
24517;SDS011;12678;51.336;12.406;2023-03-01T02:22:15;17.98;;;7.55;;
24517;SDS011;12678;51.336;12.406;2023-03-01T02:27:20;12.75;;;6.55;;
24517;SDS011;12678;51.336;12.406;2023-03-01T02:29:51;12.18;;;7.03;;
24517;SDS011;12678;51.336;12.406;2023-03-01T02:32:17;15.20;;;6.38;;
24517;SDS011;12678;51.336;12.406;2023-03-01T02:34:50;19.23;;;7.45;;
24517;SDS011;12678;51.336;12.406;2023-03-01T02:37:20;15.75;;;7.10;;
24517;SDS011;12678;51.336;12.406;2023-03-01T02:39:50;16.75;;;6.40;;
24517;SDS011;12678;51.336;12.406;2023-03-01T02:42:30;13.02;;;6.68;;
24517;SDS011;12678;51.336;12.406;2023-03-01T02:45:00;15.85;;;6.53;;
24517;SDS011;12678;51.336;12.406;2023-03-01T02:47:26;18.42;;;7.22;;
24517;SDS011;12678;51.336;12.406;2023-03-01T02:49:52;21.13;;;8.43;;
24517;SDS011;12678;51.336;12.406;2023-03-01T02:55:16;16.08;;;7.32;;
24517;SDS011;12678;51.336;12.406;2023-03-01T02:57:43;17.88;;;7.93;;
24517;SDS011;12678;51.336;12.406;2023-03-01T03:00:14;21.67;;;8.85;;
24517;SDS011;12678;51.336;12.406;2023-03-01T03:02:44;18.88;;;8.35;;
24517;SDS011;12678;51.336;12.406;2023-03-01T03:05:13;18.75;;;7.47;;
24517;SDS011;12678;51.336;12.406;2023-03-01T03:07:47;17.65;;;7.35;;
24517;SDS011;12678;51.336;12.406;2023-03-01T03:10:34;23.73;;;8.68;;
24517;SDS011;12678;51.336;12.406;2023-03-01T03:13:03;20.70;;;8.65;;
24517;SDS011;12678;51.336;12.406;2023-03-01T03:15:31;20.98;;;7.53;;
24517;SDS011;12678;51.336;12.406;2023-03-01T03:18:01;15.98;;;6.68;;
24517;SDS011;12678;51.336;12.406;2023-03-01T03:20:28;17.83;;;6.88;;
24517;SDS011;12678;51.336;12.406;2023-03-01T03:22:55;15.45;;;7.05;;
24517;SDS011;12678;51.336;12.406;2023-03-01T03:25:23;17.55;;;7.55;;
24517;SDS011;12678;51.336;12.406;2023-03-01T03:27:50;20.38;;;7.07;;
24517;SDS011;12678;51.336;12.406;2023-03-01T03:30:22;14.88;;;7.28;;
24517;SDS011;12678;51.336;12.406;2023-03-01T03:32:53;12.32;;;6.07;;
24517;SDS011;12678;51.336;12.406;2023-03-01T03:35:24;20.17;;;7.70;;
24517;SDS011;12678;51.336;12.406;2023-03-01T03:37:53;19.08;;;7.53;;
24517;SDS011;12678;51.336;12.406;2023-03-01T03:40:38;21.25;;;8.02;;
24517;SDS011;12678;51.336;12.406;2023-03-01T03:43:06;20.08;;;7.25;;
24517;SDS011;12678;51.336;12.406;2023-03-01T03:45:34;15.60;;;6.82;;
24517;SDS011;12678;51.336;12.406;2023-03-01T03:48:00;19.88;;;8.20;;
24517;SDS011;12678;51.336;12.406;2023-03-01T03:50:27;20.52;;;7.78;;
24517;SDS011;12678;51.336;12.406;2023-03-01T03:52:53;17.77;;;8.85;;
24517;SDS011;12678;51.336;12.406;2023-03-01T03:55:19;17.17;;;7.15;;
24517;SDS011;12678;51.336;12.406;2023-03-01T03:57:45;18.67;;;7.53;;
24517;SDS011;12678;51.336;12.406;2023-03-01T04:00:19;17.05;;;7.13;;
24517;SDS011;12678;51.336;12.406;2023-03-01T04:02:47;18.80;;;7.82;;
24517;SDS011;12678;51.336;12.406;2023-03-01T04:05:15;17.90;;;7.55;;
24517;SDS011;12678;51.336;12.406;2023-03-01T04:07:42;19.17;;;7.22;;
24517;SDS011;12678;51.336;12.406;2023-03-01T04:10:09;22.40;;;8.88;;
24517;SDS011;12678;51.336;12.406;2023-03-01T04:12:36;13.95;;;6.50;;
24517;SDS011;12678;51.336;12.406;2023-03-01T04:15:03;14.82;;;6.97;;
24517;SDS011;12678;51.336;12.406;2023-03-01T04:17:49;15.98;;;7.40;;
24517;SDS011;12678;51.336;12.406;2023-03-01T04:20:17;14.52;;;6.57;;
24517;SDS011;12678;51.336;12.406;2023-03-01T04:22:50;20.67;;;7.82;;
24517;SDS011;12678;51.336;12.406;2023-03-01T04:25:23;17.77;;;8.10;;
24517;SDS011;12678;51.336;12.406;2023-03-01T04:27:49;17.30;;;7.72;;
24517;SDS011;12678;51.336;12.406;2023-03-01T04:30:15;13.27;;;7.05;;
24517;SDS011;12678;51.336;12.406;2023-03-01T04:32:41;17.55;;;7.57;;
24517;SDS011;12678;51.336;12.406;2023-03-01T04:35:07;30.27;;;11.73;;
24517;SDS011;12678;51.336;12.406;2023-03-01T04:37:33;21.02;;;9.15;;
24517;SDS011;12678;51.336;12.406;2023-03-01T04:40:00;19.45;;;9.02;;
24517;SDS011;12678;51.336;12.406;2023-03-01T04:42:32;18.15;;;7.93;;
24517;SDS011;12678;51.336;12.406;2023-03-01T04:44:58;18.42;;;7.70;;
24517;SDS011;12678;51.336;12.406;2023-03-01T04:47:24;19.77;;;7.57;;
24517;SDS011;12678;51.336;12.406;2023-03-01T04:49:49;20.27;;;7.38;;
24517;SDS011;12678;51.336;12.406;2023-03-01T04:52:15;18.15;;;6.70;;
24517;SDS011;12678;51.336;12.406;2023-03-01T04:54:40;22.08;;;7.32;;
24517;SDS011;12678;51.336;12.406;2023-03-01T04:57:06;15.35;;;7.00;;
24517;SDS011;12678;51.336;12.406;2023-03-01T04:59:32;18.70;;;8.70;;
24517;SDS011;12678;51.336;12.406;2023-03-01T05:01:58;15.30;;;7.70;;
24517;SDS011;12678;51.336;12.406;2023-03-01T05:04:25;20.95;;;9.82;;
24517;SDS011;12678;51.336;12.406;2023-03-01T05:06:51;29.52;;;9.23;;
24517;SDS011;12678;51.336;12.406;2023-03-01T05:09:18;24.58;;;9.38;;
24517;SDS011;12678;51.336;12.406;2023-03-01T05:11:44;22.38;;;9.38;;
24517;SDS011;12678;51.336;12.406;2023-03-01T05:14:10;23.33;;;8.18;;
24517;SDS011;12678;51.336;12.406;2023-03-01T05:16:36;18.00;;;9.25;;
24517;SDS011;12678;51.336;12.406;2023-03-01T05:19:03;19.25;;;8.18;;
24517;SDS011;12678;51.336;12.406;2023-03-01T05:21:36;25.42;;;8.98;;
24517;SDS011;12678;51.336;12.406;2023-03-01T05:24:23;15.77;;;8.48;;
24517;SDS011;12678;51.336;12.406;2023-03-01T05:26:49;17.65;;;7.95;;
24517;SDS011;12678;51.336;12.406;2023-03-01T05:29:19;31.55;;;8.25;;
24517;SDS011;12678;51.336;12.406;2023-03-01T05:31:50;16.13;;;7.82;;
24517;SDS011;12678;51.336;12.406;2023-03-01T05:34:18;20.55;;;9.05;;
24517;SDS011;12678;51.336;12.406;2023-03-01T05:36:45;20.67;;;8.10;;
24517;SDS011;12678;51.336;12.406;2023-03-01T05:39:11;17.92;;;8.25;;
24517;SDS011;12678;51.336;12.406;2023-03-01T05:41:37;17.80;;;7.50;;
24517;SDS011;12678;51.336;12.406;2023-03-01T05:44:02;20.75;;;8.13;;
24517;SDS011;12678;51.336;12.406;2023-03-01T05:46:29;18.48;;;6.90;;
24517;SDS011;12678;51.336;12.406;2023-03-01T05:48:55;18.05;;;7.38;;
24517;SDS011;12678;51.336;12.406;2023-03-01T05:51:21;13.25;;;6.70;;
24517;SDS011;12678;51.336;12.406;2023-03-01T05:53:47;21.17;;;8.82;;
24517;SDS011;12678;51.336;12.406;2023-03-01T05:56:13;18.63;;;8.35;;
24517;SDS011;12678;51.336;12.406;2023-03-01T05:58:39;29.30;;;9.07;;
24517;SDS011;12678;51.336;12.406;2023-03-01T06:01:04;18.65;;;7.28;;
24517;SDS011;12678;51.336;12.406;2023-03-01T06:03:30;16.75;;;8.07;;
24517;SDS011;12678;51.336;12.406;2023-03-01T06:05:56;16.00;;;8.23;;
24517;SDS011;12678;51.336;12.406;2023-03-01T06:08:23;23.63;;;8.07;;
24517;SDS011;12678;51.336;12.406;2023-03-01T06:10:51;14.02;;;7.72;;
24517;SDS011;12678;51.336;12.406;2023-03-01T06:13:17;17.20;;;7.72;;
24517;SDS011;12678;51.336;12.406;2023-03-01T06:15:43;18.30;;;8.32;;
24517;SDS011;12678;51.336;12.406;2023-03-01T06:18:08;18.80;;;8.73;;
24517;SDS011;12678;51.336;12.406;2023-03-01T06:20:34;12.15;;;6.57;;
24517;SDS011;12678;51.336;12.406;2023-03-01T06:23:00;21.08;;;7.30;;
24517;SDS011;12678;51.336;12.406;2023-03-01T06:25:26;26.35;;;10.68;;
24517;SDS011;12678;51.336;12.406;2023-03-01T06:27:52;24.45;;;8.00;;
24517;SDS011;12678;51.336;12.406;2023-03-01T06:30:18;21.92;;;8.65;;
24517;SDS011;12678;51.336;12.406;2023-03-01T06:32:45;20.60;;;8.80;;
24517;SDS011;12678;51.336;12.406;2023-03-01T06:35:12;18.85;;;8.95;;
24517;SDS011;12678;51.336;12.406;2023-03-01T06:37:40;26.30;;;9.20;;
24517;SDS011;12678;51.336;12.406;2023-03-01T06:40:06;22.23;;;8.38;;
24517;SDS011;12678;51.336;12.406;2023-03-01T06:42:36;28.83;;;9.45;;
24517;SDS011;12678;51.336;12.406;2023-03-01T06:45:08;23.63;;;9.57;;
24517;SDS011;12678;51.336;12.406;2023-03-01T06:47:34;25.55;;;9.60;;
24517;SDS011;12678;51.336;12.406;2023-03-01T06:50:00;23.38;;;8.85;;
24517;SDS011;12678;51.336;12.406;2023-03-01T06:52:26;19.00;;;8.30;;
24517;SDS011;12678;51.336;12.406;2023-03-01T06:54:52;20.73;;;9.07;;
24517;SDS011;12678;51.336;12.406;2023-03-01T06:57:17;25.85;;;8.57;;
24517;SDS011;12678;51.336;12.406;2023-03-01T06:59:43;19.33;;;9.05;;
24517;SDS011;12678;51.336;12.406;2023-03-01T07:02:10;21.30;;;7.97;;
24517;SDS011;12678;51.336;12.406;2023-03-01T07:04:37;21.10;;;9.52;;
24517;SDS011;12678;51.336;12.406;2023-03-01T07:07:03;21.85;;;8.80;;
24517;SDS011;12678;51.336;12.406;2023-03-01T07:09:29;17.77;;;9.02;;
24517;SDS011;12678;51.336;12.406;2023-03-01T07:11:55;15.27;;;7.43;;
24517;SDS011;12678;51.336;12.406;2023-03-01T07:14:21;18.27;;;8.90;;
24517;SDS011;12678;51.336;12.406;2023-03-01T07:16:49;21.58;;;8.77;;
24517;SDS011;12678;51.336;12.406;2023-03-01T07:19:14;27.80;;;8.60;;
24517;SDS011;12678;51.336;12.406;2023-03-01T07:21:40;23.70;;;8.63;;
24517;SDS011;12678;51.336;12.406;2023-03-01T07:24:06;26.95;;;9.07;;
24517;SDS011;12678;51.336;12.406;2023-03-01T07:26:33;19.15;;;8.65;;
24517;SDS011;12678;51.336;12.406;2023-03-01T07:28:59;18.27;;;7.85;;
24517;SDS011;12678;51.336;12.406;2023-03-01T07:31:26;20.27;;;8.07;;
24517;SDS011;12678;51.336;12.406;2023-03-01T07:33:54;24.80;;;9.63;;
24517;SDS011;12678;51.336;12.406;2023-03-01T07:36:20;17.85;;;8.15;;
24517;SDS011;12678;51.336;12.406;2023-03-01T07:38:46;25.58;;;9.32;;
24517;SDS011;12678;51.336;12.406;2023-03-01T07:41:12;18.35;;;8.60;;
24517;SDS011;12678;51.336;12.406;2023-03-01T07:43:38;19.92;;;7.57;;
24517;SDS011;12678;51.336;12.406;2023-03-01T07:46:04;20.70;;;8.75;;
24517;SDS011;12678;51.336;12.406;2023-03-01T07:48:30;19.75;;;8.18;;
24517;SDS011;12678;51.336;12.406;2023-03-01T07:51:00;29.42;;;8.68;;
24517;SDS011;12678;51.336;12.406;2023-03-01T07:53:27;19.25;;;8.75;;
24517;SDS011;12678;51.336;12.406;2023-03-01T07:56:00;25.48;;;8.95;;
24517;SDS011;12678;51.336;12.406;2023-03-01T07:58:29;24.38;;;7.93;;
24517;SDS011;12678;51.336;12.406;2023-03-01T08:00:55;22.80;;;8.90;;
24517;SDS011;12678;51.336;12.406;2023-03-01T08:03:20;23.00;;;8.30;;
24517;SDS011;12678;51.336;12.406;2023-03-01T08:05:46;19.85;;;9.35;;
24517;SDS011;12678;51.336;12.406;2023-03-01T08:08:12;21.67;;;8.75;;
24517;SDS011;12678;51.336;12.406;2023-03-01T08:10:38;17.83;;;8.48;;
24517;SDS011;12678;51.336;12.406;2023-03-01T08:13:04;32.35;;;9.15;;
24517;SDS011;12678;51.336;12.406;2023-03-01T08:15:29;21.15;;;8.32;;
24517;SDS011;12678;51.336;12.406;2023-03-01T08:17:55;21.30;;;10.00;;
24517;SDS011;12678;51.336;12.406;2023-03-01T08:20:21;25.23;;;9.10;;
24517;SDS011;12678;51.336;12.406;2023-03-01T08:22:46;21.40;;;8.52;;
24517;SDS011;12678;51.336;12.406;2023-03-01T08:25:12;23.85;;;8.50;;
24517;SDS011;12678;51.336;12.406;2023-03-01T08:27:38;24.98;;;9.23;;
24517;SDS011;12678;51.336;12.406;2023-03-01T08:30:04;21.52;;;8.73;;
24517;SDS011;12678;51.336;12.406;2023-03-01T08:32:34;28.40;;;9.20;;
24517;SDS011;12678;51.336;12.406;2023-03-01T08:35:01;21.42;;;9.18;;
24517;SDS011;12678;51.336;12.406;2023-03-01T08:37:27;20.40;;;8.88;;
24517;SDS011;12678;51.336;12.406;2023-03-01T08:39:55;20.35;;;9.60;;
24517;SDS011;12678;51.336;12.406;2023-03-01T08:42:21;23.85;;;9.18;;
24517;SDS011;12678;51.336;12.406;2023-03-01T08:44:47;26.33;;;9.90;;
24517;SDS011;12678;51.336;12.406;2023-03-01T08:47:13;23.80;;;10.15;;
24517;SDS011;12678;51.336;12.406;2023-03-01T08:49:39;20.63;;;9.07;;
24517;SDS011;12678;51.336;12.406;2023-03-01T08:52:04;27.65;;;10.27;;
24517;SDS011;12678;51.336;12.406;2023-03-01T08:54:42;32.60;;;10.55;;
24517;SDS011;12678;51.336;12.406;2023-03-01T08:57:18;20.20;;;8.77;;
24517;SDS011;12678;51.336;12.406;2023-03-01T08:59:44;25.40;;;9.25;;
24517;SDS011;12678;51.336;12.406;2023-03-01T09:02:14;20.40;;;9.38;;
24517;SDS011;12678;51.336;12.406;2023-03-01T09:04:41;20.13;;;9.35;;
24517;SDS011;12678;51.336;12.406;2023-03-01T09:07:07;25.42;;;9.43;;
24517;SDS011;12678;51.336;12.406;2023-03-01T09:09:33;29.35;;;10.43;;
24517;SDS011;12678;51.336;12.406;2023-03-01T09:11:59;24.70;;;8.90;;
24517;SDS011;12678;51.336;12.406;2023-03-01T09:14:25;21.67;;;8.75;;
24517;SDS011;12678;51.336;12.406;2023-03-01T09:16:51;23.60;;;9.45;;
24517;SDS011;12678;51.336;12.406;2023-03-01T09:19:17;18.35;;;8.65;;
24517;SDS011;12678;51.336;12.406;2023-03-01T09:21:43;23.33;;;9.35;;
24517;SDS011;12678;51.336;12.406;2023-03-01T09:24:17;22.65;;;9.68;;
24517;SDS011;12678;51.336;12.406;2023-03-01T09:26:43;25.85;;;9.65;;
24517;SDS011;12678;51.336;12.406;2023-03-01T09:29:11;29.50;;;10.50;;
24517;SDS011;12678;51.336;12.406;2023-03-01T09:31:38;20.40;;;8.70;;
24517;SDS011;12678;51.336;12.406;2023-03-01T09:34:04;23.73;;;9.45;;
24517;SDS011;12678;51.336;12.406;2023-03-01T09:36:30;21.40;;;8.50;;
24517;SDS011;12678;51.336;12.406;2023-03-01T09:38:57;27.08;;;8.60;;
24517;SDS011;12678;51.336;12.406;2023-03-01T09:44:10;20.90;;;8.82;;
24517;SDS011;12678;51.336;12.406;2023-03-01T09:46:41;26.88;;;8.55;;
24517;SDS011;12678;51.336;12.406;2023-03-01T09:55:13;22.38;;;9.38;;
24517;SDS011;12678;51.336;12.406;2023-03-01T09:57:43;22.80;;;9.27;;
24517;SDS011;12678;51.336;12.406;2023-03-01T10:02:42;21.55;;;9.40;;
24517;SDS011;12678;51.336;12.406;2023-03-01T10:07:58;25.38;;;8.85;;
24517;SDS011;12678;51.336;12.406;2023-03-01T10:10:51;20.73;;;7.78;;
24517;SDS011;12678;51.336;12.406;2023-03-01T10:13:27;30.10;;;9.63;;
24517;SDS011;12678;51.336;12.406;2023-03-01T10:16:17;20.20;;;8.35;;
24517;SDS011;12678;51.336;12.406;2023-03-01T10:18:50;25.33;;;9.25;;
24517;SDS011;12678;51.336;12.406;2023-03-01T10:21:20;25.45;;;9.18;;
24517;SDS011;12678;51.336;12.406;2023-03-01T10:23:46;25.90;;;8.95;;
24517;SDS011;12678;51.336;12.406;2023-03-01T10:29:17;19.77;;;8.13;;
24517;SDS011;12678;51.336;12.406;2023-03-01T10:31:50;29.15;;;9.57;;
24517;SDS011;12678;51.336;12.406;2023-03-01T10:34:21;17.10;;;8.20;;
24517;SDS011;12678;51.336;12.406;2023-03-01T10:37:13;24.25;;;8.85;;
24517;SDS011;12678;51.336;12.406;2023-03-01T10:39:53;18.13;;;7.60;;
24517;SDS011;12678;51.336;12.406;2023-03-01T10:42:22;22.75;;;8.85;;
24517;SDS011;12678;51.336;12.406;2023-03-01T10:44:53;19.92;;;8.68;;
24517;SDS011;12678;51.336;12.406;2023-03-01T10:47:21;12.52;;;6.55;;
24517;SDS011;12678;51.336;12.406;2023-03-01T10:49:52;17.45;;;7.25;;
24517;SDS011;12678;51.336;12.406;2023-03-01T10:52:40;23.75;;;7.78;;
24517;SDS011;12678;51.336;12.406;2023-03-01T10:57:38;19.10;;;8.38;;
24517;SDS011;12678;51.336;12.406;2023-03-01T11:00:22;22.95;;;8.40;;
24517;SDS011;12678;51.336;12.406;2023-03-01T11:02:50;18.58;;;6.93;;
24517;SDS011;12678;51.336;12.406;2023-03-01T11:05:23;17.20;;;7.03;;
24517;SDS011;12678;51.336;12.406;2023-03-01T11:07:53;16.30;;;7.93;;
24517;SDS011;12678;51.336;12.406;2023-03-01T11:10:28;17.15;;;8.02;;
24517;SDS011;12678;51.336;12.406;2023-03-01T11:13:13;18.55;;;9.10;;
24517;SDS011;12678;51.336;12.406;2023-03-01T11:15:57;19.38;;;8.75;;
24517;SDS011;12678;51.336;12.406;2023-03-01T11:18:25;22.10;;;9.07;;
24517;SDS011;12678;51.336;12.406;2023-03-01T11:20:52;20.40;;;8.88;;
24517;SDS011;12678;51.336;12.406;2023-03-01T11:23:20;23.85;;;8.88;;
24517;SDS011;12678;51.336;12.406;2023-03-01T11:26:00;24.35;;;9.70;;
24517;SDS011;12678;51.336;12.406;2023-03-01T11:30:58;26.27;;;9.50;;
24517;SDS011;12678;51.336;12.406;2023-03-01T11:33:44;24.27;;;9.50;;
24517;SDS011;12678;51.336;12.406;2023-03-01T11:38:56;22.80;;;9.23;;
24517;SDS011;12678;51.336;12.406;2023-03-01T11:41:28;27.20;;;9.35;;
24517;SDS011;12678;51.336;12.406;2023-03-01T11:43:58;22.65;;;10.02;;
24517;SDS011;12678;51.336;12.406;2023-03-01T11:54:13;23.83;;;10.32;;
24517;SDS011;12678;51.336;12.406;2023-03-01T11:57:15;23.52;;;8.25;;
24517;SDS011;12678;51.336;12.406;2023-03-01T12:10:35;26.48;;;8.43;;
24517;SDS011;12678;51.336;12.406;2023-03-01T12:16:46;27.30;;;9.35;;
24517;SDS011;12678;51.336;12.406;2023-03-01T12:19:28;21.20;;;8.63;;
24517;SDS011;12678;51.336;12.406;2023-03-01T12:32:51;21.98;;;7.55;;
24517;SDS011;12678;51.336;12.406;2023-03-01T12:41:11;14.48;;;6.25;;
24517;SDS011;12678;51.336;12.406;2023-03-01T12:44:01;16.27;;;6.93;;
24517;SDS011;12678;51.336;12.406;2023-03-01T12:46:55;17.88;;;7.60;;
24517;SDS011;12678;51.336;12.406;2023-03-01T12:53:19;16.50;;;8.00;;
24517;SDS011;12678;51.336;12.406;2023-03-01T12:58:26;16.42;;;8.07;;
24517;SDS011;12678;51.336;12.406;2023-03-01T13:11:48;18.98;;;8.32;;
24517;SDS011;12678;51.336;12.406;2023-03-01T13:16:45;18.77;;;7.60;;
24517;SDS011;12678;51.336;12.406;2023-03-01T13:19:21;14.98;;;7.18;;
24517;SDS011;12678;51.336;12.406;2023-03-01T13:21:48;19.10;;;8.02;;
24517;SDS011;12678;51.336;12.406;2023-03-01T13:29:32;20.05;;;9.02;;
24517;SDS011;12678;51.336;12.406;2023-03-01T13:32:20;20.50;;;7.88;;
24517;SDS011;12678;51.336;12.406;2023-03-01T13:35:41;17.73;;;8.77;;
24517;SDS011;12678;51.336;12.406;2023-03-01T13:37:50;15.68;;;6.97;;
24517;SDS011;12678;51.336;12.406;2023-03-01T13:42:44;14.13;;;6.93;;
24517;SDS011;12678;51.336;12.406;2023-03-01T13:45:18;17.52;;;8.18;;
24517;SDS011;12678;51.336;12.406;2023-03-01T13:47:54;21.02;;;8.75;;
24517;SDS011;12678;51.336;12.406;2023-03-01T13:50:25;16.95;;;6.95;;
24517;SDS011;12678;51.336;12.406;2023-03-01T13:52:54;17.65;;;8.15;;
24517;SDS011;12678;51.336;12.406;2023-03-01T13:55:35;20.15;;;7.15;;
24517;SDS011;12678;51.336;12.406;2023-03-01T14:01:00;21.65;;;7.75;;
24517;SDS011;12678;51.336;12.406;2023-03-01T14:03:30;22.05;;;7.63;;
24517;SDS011;12678;51.336;12.406;2023-03-01T14:05:58;14.52;;;6.65;;
24517;SDS011;12678;51.336;12.406;2023-03-01T14:08:27;19.85;;;7.68;;
24517;SDS011;12678;51.336;12.406;2023-03-01T14:10:57;14.68;;;6.30;;
24517;SDS011;12678;51.336;12.406;2023-03-01T14:16:20;17.05;;;7.53;;
24517;SDS011;12678;51.336;12.406;2023-03-01T14:21:46;16.55;;;6.35;;
24517;SDS011;12678;51.336;12.406;2023-03-01T14:24:16;17.20;;;6.72;;
24517;SDS011;12678;51.336;12.406;2023-03-01T14:26:44;12.77;;;6.47;;
24517;SDS011;12678;51.336;12.406;2023-03-01T14:32:17;13.07;;;5.65;;
24517;SDS011;12678;51.336;12.406;2023-03-01T14:34:46;12.98;;;5.78;;
24517;SDS011;12678;51.336;12.406;2023-03-01T14:37:21;15.75;;;6.25;;
24517;SDS011;12678;51.336;12.406;2023-03-01T14:39:49;10.25;;;5.30;;
24517;SDS011;12678;51.336;12.406;2023-03-01T14:42:16;11.75;;;5.43;;
24517;SDS011;12678;51.336;12.406;2023-03-01T14:44:43;13.82;;;5.78;;
24517;SDS011;12678;51.336;12.406;2023-03-01T14:47:14;12.32;;;5.13;;
24517;SDS011;12678;51.336;12.406;2023-03-01T14:49:47;11.23;;;4.85;;
24517;SDS011;12678;51.336;12.406;2023-03-01T14:52:22;16.17;;;5.70;;
24517;SDS011;12678;51.336;12.406;2023-03-01T14:54:52;11.75;;;5.82;;
24517;SDS011;12678;51.336;12.406;2023-03-01T14:57:25;10.43;;;5.65;;
24517;SDS011;12678;51.336;12.406;2023-03-01T14:59:52;17.52;;;6.03;;
24517;SDS011;12678;51.336;12.406;2023-03-01T15:02:29;10.80;;;5.32;;
24517;SDS011;12678;51.336;12.406;2023-03-01T15:04:57;14.85;;;5.95;;
24517;SDS011;12678;51.336;12.406;2023-03-01T15:07:33;8.80;;;5.07;;
24517;SDS011;12678;51.336;12.406;2023-03-01T15:10:02;16.95;;;6.47;;
24517;SDS011;12678;51.336;12.406;2023-03-01T15:14:56;11.25;;;5.30;;
24517;SDS011;12678;51.336;12.406;2023-03-01T15:17:26;14.93;;;5.32;;
24517;SDS011;12678;51.336;12.406;2023-03-01T15:19:59;10.68;;;5.53;;
24517;SDS011;12678;51.336;12.406;2023-03-01T15:22:27;11.05;;;5.22;;
24517;SDS011;12678;51.336;12.406;2023-03-01T15:24:53;13.05;;;4.95;;
24517;SDS011;12678;51.336;12.406;2023-03-01T15:27:20;12.68;;;5.15;;
24517;SDS011;12678;51.336;12.406;2023-03-01T15:29:49;11.65;;;5.57;;
24517;SDS011;12678;51.336;12.406;2023-03-01T15:32:29;11.57;;;5.10;;
24517;SDS011;12678;51.336;12.406;2023-03-01T15:35:00;8.55;;;4.15;;
24517;SDS011;12678;51.336;12.406;2023-03-01T15:37:47;10.73;;;4.97;;
24517;SDS011;12678;51.336;12.406;2023-03-01T15:40:23;18.60;;;5.93;;
24517;SDS011;12678;51.336;12.406;2023-03-01T15:42:58;9.40;;;5.13;;
24517;SDS011;12678;51.336;12.406;2023-03-01T15:45:26;9.10;;;4.78;;
24517;SDS011;12678;51.336;12.406;2023-03-01T15:50:27;12.23;;;4.53;;
24517;SDS011;12678;51.336;12.406;2023-03-01T15:52:54;9.27;;;4.88;;
24517;SDS011;12678;51.336;12.406;2023-03-01T15:55:22;9.38;;;5.10;;
24517;SDS011;12678;51.336;12.406;2023-03-01T15:58:01;11.50;;;5.15;;
24517;SDS011;12678;51.336;12.406;2023-03-01T16:00:37;11.02;;;5.32;;
24517;SDS011;12678;51.336;12.406;2023-03-01T16:03:04;9.38;;;5.18;;
24517;SDS011;12678;51.336;12.406;2023-03-01T16:05:33;13.35;;;5.13;;
24517;SDS011;12678;51.336;12.406;2023-03-01T16:08:00;12.85;;;5.28;;
24517;SDS011;12678;51.336;12.406;2023-03-01T16:10:26;13.40;;;5.10;;
24517;SDS011;12678;51.336;12.406;2023-03-01T16:12:52;14.45;;;4.97;;
24517;SDS011;12678;51.336;12.406;2023-03-01T16:17:46;17.92;;;6.00;;
24517;SDS011;12678;51.336;12.406;2023-03-01T16:20:12;12.98;;;5.15;;
24517;SDS011;12678;51.336;12.406;2023-03-01T16:22:40;11.25;;;5.10;;
24517;SDS011;12678;51.336;12.406;2023-03-01T16:25:08;8.75;;;4.53;;
24517;SDS011;12678;51.336;12.406;2023-03-01T16:27:35;10.25;;;4.82;;
24517;SDS011;12678;51.336;12.406;2023-03-01T16:30:00;9.27;;;4.82;;
24517;SDS011;12678;51.336;12.406;2023-03-01T16:32:26;11.07;;;5.65;;
24517;SDS011;12678;51.336;12.406;2023-03-01T16:34:51;11.38;;;5.03;;